Pagrindinis puslapis
METAR-TAF:

METAR-TAF

Oro uostai :

Dėras, Vengrija

platuma: 47-37-28N, ilguma: 017-48-49E, Aukštis: 129 m

Dabartinis oras

Ataskaita buvo paskelbta 46 minutes, ne 03:15 UTC
Vėjas 3 kt nuo kintamojo kryptimis
Temperatūra -2°C
Drėgmė 93%
Slėgis 1026 hPa
Matomumas: 6000 m
Apsiniaukę ne aukštis 500 ft

METAR: LHPR 180315Z AUTO VRB03KT 6000 OVC005 M02/M03 Q1026

Laikas: 05:01 (04:01 UTC)

Prognozė

Ataskaita buvo paskelbta 10 valandos ir 46 minutes, ne 17:15 UTC
Prognozė galioja nuo 17 metu 18 UTC su 18 metu 03 UTC
Vėjas 8 kt iš Pietryčių
Matomumas: 5000 m
Apsiniaukę ne aukštis 500 ft
rūkana
Laikinai
nuo 17 metu 18 UTC su 18 metu 03 UTC
Matomumas: 1500 m
Apsiniaukę ne aukštis 200 ft
rūkana

TAF: LHPR 171715Z 1718/1803 13008KT 5000 BR OVC005 TEMPO 1718/1803 1500 BR OVC002

Orai ataskaitas ir orų prognozės (METAR, TAF).

turimą stotys yra geltonos ir raudonos taškus žemėlapyje.

Perkelti pele per norėdami pamatyti stoties vardą.

Tada spustelėkite, norėdami matyti oro stebėjimo ir prognozės.

Norėdami pakeisti žemėlapį: spustelėkite ant žalios mygtukų su juodo kryžiaus žemyn,; žalią mygtuką su brūkšneliu, jei norite nutolinti; arba žalių rodyklių gretimoms žemėlapius.


METAR-TAF: